LIPXLEIB

Guest
Details From LIPX - Villafranca
To LEIB - Ibiza
Flight Number -
Tags Generated
Created
Modified
Stats Distance 577 nm / 1,068 km
Max Altitude 0 ft / 0 m
Waypoints 4
Social Downloads 0
Likes 0
Share VATSIM

Download

Looking for another format? Having issues loading an existing format? Contact us
Advertisement - Login to hide

Notes

Generated

Route

LIPX RASPA IBZ45 LEIB

ID Type Via Altitude Latitude Longitude Leg Dist Tot Dist Heading (true) Name
O LIPX APT - 0 ft / 0 m 45.38732˚ 10.87633˚ - 0 nm - -
RASPA FIX - 0 ft / 0 m 42.15778˚ 5.39639˚ 306 nm 306 nm 233° / 229° -
IBZ45 FIX - 0 ft / 0 m 38.88052˚ 1.38531˚ 268 nm 575 nm 224° / 222° -
O LEIB APT - 0 ft / 0 m 38.86694˚ 1.35887˚ 1 nm 576 nm 237° / 237° -

Altitude Profile

Advertisement - Login to hide

Weather


0- 5 10 15 20 25 30 35+ Temperature / ° C

Clouds and Precipitation
Forecast for 2018-05-25 00:00 UTC. Updated an hour ago

Ground ~20,000 ft ~40,000 ft Winds

LIPX

Details ICAO LIPX (VRN)
Name VILLAFRANCA
Region Italy
Timezone Europe/Rome (UTC+2.0)
Stats Elevation 239 ft / 73 m (AMSL)
Location 45.396942° 10.890418°
Runways 1
Magnetic Variation 2.911° E

METAR

LIPX 242350Z VRB02KT CAVOK 18/16 Q1016

Decode

TAF

Not found

Departure Runways

ID Width Length Bearing (true) Bearing (mag) Surface Threshold Offset Overrun Length
04 148 ft / 45 m 10,072 ft / 3,070 m 45.79° 42.88° Asphalt 189 ft / 58 m 815 ft / 248 m
22 148 ft / 45 m 10,072 ft / 3,070 m 225.81° 222.90° Asphalt 1,345 ft / 410 m 189 ft / 58 m

LEIB

Details ICAO LEIB (IBZ)
Name Ibiza
Region Spain
Timezone Europe/Madrid (UTC+2.0)
Stats Elevation 20 ft / 6 m (AMSL)
Location 38.872871° 1.373045°
Runways 1
Magnetic Variation 0.710° E

METAR

LEIB 250000Z 05017KT CAVOK 20/15 Q1012 NOSIG

Decode

TAF

TAF LEIB 242000Z 2421/2521 06016KT 9999 FEW040 TX22/2512Z TN17/2506Z TEMPO 2421/2505 07018G28KT PROB40 TEMPO 2421/2507 FEW050CB BECMG 2504/2506 14013KT BECMG 2510/2512 20010KT

Decode

Destination Runways

ID Width Length Bearing (true) Bearing (mag) Surface Threshold Offset Overrun Length
06 148 ft / 45 m 9,153 ft / 2,790 m 61.85° 61.14° Asphalt 0 ft / 0 m 213 ft / 65 m
24 148 ft / 45 m 9,153 ft / 2,790 m 241.86° 241.15° Asphalt 0 ft / 0 m 197 ft / 60 m

Approach Navaids

Runway Type Ident Frequency Range Bearing (true) Bearing (mag) Slope Elevation
06 Localiser IBI 111.10 MHz 18 nm / 33 km 62.00° 61.29° - 20 ft / 6 m (AMSL)
06 Glidescope IBI 111.10 MHz 10 nm / 19 km 62.00° 61.29° 3.00° 20 ft / 6 m (AMSL)
06 DME IBI 111.10 MHz 18 nm / 33 km - - - 20 ft / 6 m (AMSL)
24 Localiser IBZ 109.50 MHz 18 nm / 33 km 241.81° 241.10° - 15 ft / 5 m (AMSL)
24 Glidescope IBZ 109.50 MHz 10 nm / 19 km 241.86° 241.15° 3.00° 69 ft / 21 m (AMSL)
24 DME IBZ 109.50 MHz 18 nm / 33 km - - - 69 ft / 21 m (AMSL)

Popular Alternatives